sensor_id;sensor_type;location;lat;lon;timestamp;temperature;humidity
21540;DHT22;10931;52.164;5.518;2023-04-02T00:05:28;19.40;63.40
21540;DHT22;10931;52.164;5.518;2023-04-02T00:10:50;19.40;63.40
21540;DHT22;10931;52.164;5.518;2023-04-02T00:13:20;19.40;63.30
21540;DHT22;10931;52.164;5.518;2023-04-02T00:15:49;19.40;63.30
21540;DHT22;10931;52.164;5.518;2023-04-02T00:18:18;19.40;63.30
21540;DHT22;10931;52.164;5.518;2023-04-02T00:20:55;19.40;63.30
21540;DHT22;10931;52.164;5.518;2023-04-02T00:23:23;19.40;63.20
21540;DHT22;10931;52.164;5.518;2023-04-02T00:25:49;19.40;63.20
21540;DHT22;10931;52.164;5.518;2023-04-02T00:28:18;19.40;63.20
21540;DHT22;10931;52.164;5.518;2023-04-02T00:30:55;19.40;63.20
21540;DHT22;10931;52.164;5.518;2023-04-02T00:33:25;19.40;63.20
21540;DHT22;10931;52.164;5.518;2023-04-02T00:35:53;19.40;63.20
21540;DHT22;10931;52.164;5.518;2023-04-02T00:38:37;19.40;63.20
21540;DHT22;10931;52.164;5.518;2023-04-02T00:41:13;19.30;63.20
21540;DHT22;10931;52.164;5.518;2023-04-02T00:43:44;19.40;63.20
21540;DHT22;10931;52.164;5.518;2023-04-02T00:46:14;19.40;63.20
21540;DHT22;10931;52.164;5.518;2023-04-02T00:49:24;19.40;63.20
21540;DHT22;10931;52.164;5.518;2023-04-02T00:51:50;19.30;63.20
21540;DHT22;10931;52.164;5.518;2023-04-02T00:54:19;19.30;63.20
21540;DHT22;10931;52.164;5.518;2023-04-02T00:56:50;19.30;63.20
21540;DHT22;10931;52.164;5.518;2023-04-02T00:59:34;19.40;64.00
21540;DHT22;10931;52.164;5.518;2023-04-02T01:04:39;19.30;63.20
21540;DHT22;10931;52.164;5.518;2023-04-02T01:07:09;19.30;63.20
21540;DHT22;10931;52.164;5.518;2023-04-02T01:09:46;19.30;63.20
21540;DHT22;10931;52.164;5.518;2023-04-02T01:15:24;19.30;63.10
21540;DHT22;10931;52.164;5.518;2023-04-02T01:24:11;19.30;63.00
21540;DHT22;10931;52.164;5.518;2023-04-02T01:27:01;19.30;63.00
21540;DHT22;10931;52.164;5.518;2023-04-02T01:29:38;19.30;63.00
21540;DHT22;10931;52.164;5.518;2023-04-02T01:32:16;19.30;63.00
21540;DHT22;10931;52.164;5.518;2023-04-02T01:34:45;19.20;63.00
21540;DHT22;10931;52.164;5.518;2023-04-02T01:42:47;19.20;62.90
21540;DHT22;10931;52.164;5.518;2023-04-02T01:45:20;19.20;63.00
21540;DHT22;10931;52.164;5.518;2023-04-02T01:47:47;19.20;62.90
21540;DHT22;10931;52.164;5.518;2023-04-02T01:50:21;19.20;62.90
21540;DHT22;10931;52.164;5.518;2023-04-02T01:52:57;19.20;62.80
21540;DHT22;10931;52.164;5.518;2023-04-02T01:55:45;19.20;62.90
21540;DHT22;10931;52.164;5.518;2023-04-02T01:58:18;19.20;62.90
21540;DHT22;10931;52.164;5.518;2023-04-02T02:01:05;19.20;62.80
21540;DHT22;10931;52.164;5.518;2023-04-02T02:03:33;19.20;62.80
21540;DHT22;10931;52.164;5.518;2023-04-02T02:06:00;19.20;62.80
21540;DHT22;10931;52.164;5.518;2023-04-02T02:08:38;19.20;62.80
21540;DHT22;10931;52.164;5.518;2023-04-02T02:11:05;19.20;62.90
21540;DHT22;10931;52.164;5.518;2023-04-02T02:13:31;19.20;62.90
21540;DHT22;10931;52.164;5.518;2023-04-02T02:16:03;19.20;62.90
21540;DHT22;10931;52.164;5.518;2023-04-02T02:18:32;19.20;63.00
21540;DHT22;10931;52.164;5.518;2023-04-02T02:20:59;19.20;62.90
21540;DHT22;10931;52.164;5.518;2023-04-02T02:23:27;19.20;62.90
21540;DHT22;10931;52.164;5.518;2023-04-02T02:25:54;19.20;63.00
21540;DHT22;10931;52.164;5.518;2023-04-02T02:28:35;19.20;62.90
21540;DHT22;10931;52.164;5.518;2023-04-02T02:31:15;19.20;63.00
21540;DHT22;10931;52.164;5.518;2023-04-02T02:33:50;19.20;63.00
21540;DHT22;10931;52.164;5.518;2023-04-02T02:46:47;19.20;62.90
21540;DHT22;10931;52.164;5.518;2023-04-02T02:49:19;19.10;62.80
21540;DHT22;10931;52.164;5.518;2023-04-02T02:51:52;19.10;62.80
21540;DHT22;10931;52.164;5.518;2023-04-02T02:54:19;19.10;62.80
21540;DHT22;10931;52.164;5.518;2023-04-02T02:56:49;19.10;62.70
21540;DHT22;10931;52.164;5.518;2023-04-02T02:59:18;19.10;62.70
21540;DHT22;10931;52.164;5.518;2023-04-02T03:01:46;19.10;62.70
21540;DHT22;10931;52.164;5.518;2023-04-02T03:04:13;19.10;62.70
21540;DHT22;10931;52.164;5.518;2023-04-02T03:06:48;19.10;62.70
21540;DHT22;10931;52.164;5.518;2023-04-02T03:17:47;19.10;62.70
21540;DHT22;10931;52.164;5.518;2023-04-02T03:23:05;19.10;62.70
21540;DHT22;10931;52.164;5.518;2023-04-02T03:25:45;19.10;62.60
21540;DHT22;10931;52.164;5.518;2023-04-02T03:28:20;19.10;62.60
21540;DHT22;10931;52.164;5.518;2023-04-02T03:30:51;19.00;62.50
21540;DHT22;10931;52.164;5.518;2023-04-02T03:33:24;19.00;62.50
21540;DHT22;10931;52.164;5.518;2023-04-02T03:36:11;19.00;62.50
21540;DHT22;10931;52.164;5.518;2023-04-02T03:38:43;19.00;62.50
21540;DHT22;10931;52.164;5.518;2023-04-02T03:41:18;19.00;62.50
21540;DHT22;10931;52.164;5.518;2023-04-02T03:43:54;19.00;62.50
21540;DHT22;10931;52.164;5.518;2023-04-02T03:46:46;19.00;62.50
21540;DHT22;10931;52.164;5.518;2023-04-02T03:49:58;19.00;62.50
21540;DHT22;10931;52.164;5.518;2023-04-02T03:52:28;19.00;62.50
21540;DHT22;10931;52.164;5.518;2023-04-02T03:54:55;19.00;62.50
21540;DHT22;10931;52.164;5.518;2023-04-02T03:57:32;19.00;62.60
21540;DHT22;10931;52.164;5.518;2023-04-02T04:00:20;19.00;62.60
21540;DHT22;10931;52.164;5.518;2023-04-02T04:02:50;19.00;62.60
21540;DHT22;10931;52.164;5.518;2023-04-02T04:05:22;19.00;62.70
21540;DHT22;10931;52.164;5.518;2023-04-02T04:07:52;19.00;62.60
21540;DHT22;10931;52.164;5.518;2023-04-02T04:10:23;19.00;62.60
21540;DHT22;10931;52.164;5.518;2023-04-02T04:12:51;19.00;62.60
21540;DHT22;10931;52.164;5.518;2023-04-02T04:15:29;18.90;62.50
21540;DHT22;10931;52.164;5.518;2023-04-02T04:18:05;18.90;62.50
21540;DHT22;10931;52.164;5.518;2023-04-02T04:20:49;18.90;62.50
21540;DHT22;10931;52.164;5.518;2023-04-02T04:23:28;19.00;62.60
21540;DHT22;10931;52.164;5.518;2023-04-02T04:26:19;18.90;62.50
21540;DHT22;10931;52.164;5.518;2023-04-02T04:31:47;18.90;62.50
21540;DHT22;10931;52.164;5.518;2023-04-02T04:34:39;19.00;62.50
21540;DHT22;10931;52.164;5.518;2023-04-02T04:37:18;19.00;62.50
21540;DHT22;10931;52.164;5.518;2023-04-02T04:39:56;18.90;62.50
21540;DHT22;10931;52.164;5.518;2023-04-02T04:42:27;18.90;62.40
21540;DHT22;10931;52.164;5.518;2023-04-02T04:44:55;18.90;62.40
21540;DHT22;10931;52.164;5.518;2023-04-02T04:47:51;18.90;62.40
21540;DHT22;10931;52.164;5.518;2023-04-02T04:50:29;18.90;62.40
21540;DHT22;10931;52.164;5.518;2023-04-02T04:53:16;18.90;62.40
21540;DHT22;10931;52.164;5.518;2023-04-02T04:55:47;18.90;62.30
21540;DHT22;10931;52.164;5.518;2023-04-02T05:03:46;18.90;62.20
21540;DHT22;10931;52.164;5.518;2023-04-02T05:06:30;18.90;62.20
21540;DHT22;10931;52.164;5.518;2023-04-02T05:09:19;18.90;62.20
21540;DHT22;10931;52.164;5.518;2023-04-02T05:12:15;18.90;62.20
21540;DHT22;10931;52.164;5.518;2023-04-02T05:15:11;18.80;62.20
21540;DHT22;10931;52.164;5.518;2023-04-02T05:21:22;18.90;62.10
21540;DHT22;10931;52.164;5.518;2023-04-02T05:26:57;18.80;62.10
21540;DHT22;10931;52.164;5.518;2023-04-02T05:29:35;18.80;62.10
21540;DHT22;10931;52.164;5.518;2023-04-02T05:32:03;18.80;62.10
21540;DHT22;10931;52.164;5.518;2023-04-02T05:34:36;18.80;62.10
21540;DHT22;10931;52.164;5.518;2023-04-02T05:37:17;18.80;62.10
21540;DHT22;10931;52.164;5.518;2023-04-02T05:39:44;18.80;62.10
21540;DHT22;10931;52.164;5.518;2023-04-02T05:42:21;18.80;62.10
21540;DHT22;10931;52.164;5.518;2023-04-02T05:47:47;18.80;62.10
21540;DHT22;10931;52.164;5.518;2023-04-02T05:50:32;18.80;62.20
21540;DHT22;10931;52.164;5.518;2023-04-02T05:53:27;18.70;62.10
21540;DHT22;10931;52.164;5.518;2023-04-02T05:56:19;18.70;62.10
21540;DHT22;10931;52.164;5.518;2023-04-02T05:58:53;18.80;62.10
21540;DHT22;10931;52.164;5.518;2023-04-02T06:01:54;18.80;62.20
21540;DHT22;10931;52.164;5.518;2023-04-02T06:04:43;18.80;62.20
21540;DHT22;10931;52.164;5.518;2023-04-02T06:07:27;18.80;62.10
21540;DHT22;10931;52.164;5.518;2023-04-02T06:12:52;18.80;62.10
21540;DHT22;10931;52.164;5.518;2023-04-02T06:15:21;18.70;62.10
21540;DHT22;10931;52.164;5.518;2023-04-02T06:17:51;18.70;62.10
21540;DHT22;10931;52.164;5.518;2023-04-02T06:20:28;18.80;62.10
21540;DHT22;10931;52.164;5.518;2023-04-02T06:26:15;18.70;62.10
21540;DHT22;10931;52.164;5.518;2023-04-02T06:28:59;18.70;62.10
21540;DHT22;10931;52.164;5.518;2023-04-02T06:34:14;18.70;62.00
21540;DHT22;10931;52.164;5.518;2023-04-02T06:36:41;18.70;62.00
21540;DHT22;10931;52.164;5.518;2023-04-02T06:39:10;18.70;61.90
21540;DHT22;10931;52.164;5.518;2023-04-02T06:41:39;18.70;61.90
21540;DHT22;10931;52.164;5.518;2023-04-02T06:44:16;18.70;61.90
21540;DHT22;10931;52.164;5.518;2023-04-02T06:46:51;18.70;61.90
21540;DHT22;10931;52.164;5.518;2023-04-02T06:49:44;18.70;61.90
21540;DHT22;10931;52.164;5.518;2023-04-02T06:52:32;18.70;61.80
21540;DHT22;10931;52.164;5.518;2023-04-02T06:55:16;18.70;61.80
21540;DHT22;10931;52.164;5.518;2023-04-02T06:57:48;18.60;61.70
21540;DHT22;10931;52.164;5.518;2023-04-02T07:03:05;18.70;61.80
21540;DHT22;10931;52.164;5.518;2023-04-02T07:05:31;18.60;61.70
21540;DHT22;10931;52.164;5.518;2023-04-02T07:07:57;18.70;61.70
21540;DHT22;10931;52.164;5.518;2023-04-02T07:10:23;18.60;61.60
21540;DHT22;10931;52.164;5.518;2023-04-02T07:12:49;18.60;61.60
21540;DHT22;10931;52.164;5.518;2023-04-02T07:15:24;18.60;61.70
21540;DHT22;10931;52.164;5.518;2023-04-02T07:17:50;18.60;61.70
21540;DHT22;10931;52.164;5.518;2023-04-02T07:20:32;18.60;61.60
21540;DHT22;10931;52.164;5.518;2023-04-02T07:22:58;18.60;61.60
21540;DHT22;10931;52.164;5.518;2023-04-02T07:25:27;18.60;61.70
21540;DHT22;10931;52.164;5.518;2023-04-02T07:27:53;18.60;61.60
21540;DHT22;10931;52.164;5.518;2023-04-02T07:30:19;18.60;61.70
21540;DHT22;10931;52.164;5.518;2023-04-02T07:32:47;18.60;61.60
21540;DHT22;10931;52.164;5.518;2023-04-02T07:35:15;18.60;61.60
21540;DHT22;10931;52.164;5.518;2023-04-02T07:37:41;18.60;61.70
21540;DHT22;10931;52.164;5.518;2023-04-02T07:40:16;18.60;61.60
21540;DHT22;10931;52.164;5.518;2023-04-02T07:42:43;18.60;61.60
21540;DHT22;10931;52.164;5.518;2023-04-02T07:45:12;18.60;61.70
21540;DHT22;10931;52.164;5.518;2023-04-02T07:47:39;18.60;61.60
21540;DHT22;10931;52.164;5.518;2023-04-02T07:50:06;18.50;61.60
21540;DHT22;10931;52.164;5.518;2023-04-02T07:52:42;18.60;61.60
21540;DHT22;10931;52.164;5.518;2023-04-02T07:55:09;18.60;61.60
21540;DHT22;10931;52.164;5.518;2023-04-02T07:57:50;18.60;61.70
21540;DHT22;10931;52.164;5.518;2023-04-02T08:00:22;18.60;61.60
21540;DHT22;10931;52.164;5.518;2023-04-02T08:02:53;18.60;61.60
21540;DHT22;10931;52.164;5.518;2023-04-02T08:05:18;18.60;61.60
21540;DHT22;10931;52.164;5.518;2023-04-02T08:07:54;18.60;61.60
21540;DHT22;10931;52.164;5.518;2023-04-02T08:10:21;18.50;61.60
21540;DHT22;10931;52.164;5.518;2023-04-02T08:12:47;18.60;61.60
21540;DHT22;10931;52.164;5.518;2023-04-02T08:15:14;18.60;61.60
21540;DHT22;10931;52.164;5.518;2023-04-02T08:17:40;18.60;61.60
21540;DHT22;10931;52.164;5.518;2023-04-02T08:20:16;18.50;61.60
21540;DHT22;10931;52.164;5.518;2023-04-02T08:22:45;18.50;61.50
21540;DHT22;10931;52.164;5.518;2023-04-02T08:25:11;18.60;61.60
21540;DHT22;10931;52.164;5.518;2023-04-02T08:27:37;18.60;61.60
21540;DHT22;10931;52.164;5.518;2023-04-02T08:30:11;18.60;61.60
21540;DHT22;10931;52.164;5.518;2023-04-02T08:32:37;18.60;61.60
21540;DHT22;10931;52.164;5.518;2023-04-02T08:35:06;18.60;61.60
21540;DHT22;10931;52.164;5.518;2023-04-02T08:37:35;18.60;61.60
21540;DHT22;10931;52.164;5.518;2023-04-02T08:40:01;18.50;61.60
21540;DHT22;10931;52.164;5.518;2023-04-02T08:43:03;18.60;61.60
21540;DHT22;10931;52.164;5.518;2023-04-02T08:46:10;18.60;61.60
21540;DHT22;10931;52.164;5.518;2023-04-02T08:49:09;18.60;61.60
21540;DHT22;10931;52.164;5.518;2023-04-02T08:51:36;18.60;61.50
21540;DHT22;10931;52.164;5.518;2023-04-02T08:54:15;18.50;62.20
21540;DHT22;10931;52.164;5.518;2023-04-02T08:56:48;18.60;61.50
21540;DHT22;10931;52.164;5.518;2023-04-02T09:04:40;18.60;61.50
21540;DHT22;10931;52.164;5.518;2023-04-02T09:07:11;18.50;61.40
21540;DHT22;10931;52.164;5.518;2023-04-02T09:09:40;18.60;61.50
21540;DHT22;10931;52.164;5.518;2023-04-02T09:12:16;18.60;61.50
21540;DHT22;10931;52.164;5.518;2023-04-02T09:14:49;18.60;61.50
21540;DHT22;10931;52.164;5.518;2023-04-02T09:17:28;18.60;61.50
21540;DHT22;10931;52.164;5.518;2023-04-02T09:20:16;18.60;61.40
21540;DHT22;10931;52.164;5.518;2023-04-02T09:22:44;18.50;61.40
21540;DHT22;10931;52.164;5.518;2023-04-02T09:25:21;18.50;61.40
21540;DHT22;10931;52.164;5.518;2023-04-02T09:27:49;18.60;61.40
21540;DHT22;10931;52.164;5.518;2023-04-02T09:33:07;18.60;61.50
21540;DHT22;10931;52.164;5.518;2023-04-02T09:35:54;18.60;61.40
21540;DHT22;10931;52.164;5.518;2023-04-02T09:38:24;18.60;61.40
21540;DHT22;10931;52.164;5.518;2023-04-02T09:43:37;18.60;61.40
21540;DHT22;10931;52.164;5.518;2023-04-02T09:48:44;18.60;61.40
21540;DHT22;10931;52.164;5.518;2023-04-02T09:51:20;18.60;61.40
21540;DHT22;10931;52.164;5.518;2023-04-02T09:54:13;18.60;61.40
21540;DHT22;10931;52.164;5.518;2023-04-02T09:56:38;18.60;61.30
21540;DHT22;10931;52.164;5.518;2023-04-02T09:59:18;18.60;61.30
21540;DHT22;10931;52.164;5.518;2023-04-02T10:04:38;18.70;61.40
21540;DHT22;10931;52.164;5.518;2023-04-02T10:07:30;18.70;61.30
21540;DHT22;10931;52.164;5.518;2023-04-02T10:10:18;18.70;61.30
21540;DHT22;10931;52.164;5.518;2023-04-02T10:12:49;18.70;61.30
21540;DHT22;10931;52.164;5.518;2023-04-02T10:20:53;18.70;61.30
21540;DHT22;10931;52.164;5.518;2023-04-02T10:23:25;18.70;61.20
21540;DHT22;10931;52.164;5.518;2023-04-02T10:28:45;18.70;61.20
21540;DHT22;10931;52.164;5.518;2023-04-02T10:31:35;18.80;61.20
21540;DHT22;10931;52.164;5.518;2023-04-02T10:34:24;18.80;61.20
21540;DHT22;10931;52.164;5.518;2023-04-02T10:37:06;18.80;61.10
21540;DHT22;10931;52.164;5.518;2023-04-02T10:39:42;18.80;61.10
21540;DHT22;10931;52.164;5.518;2023-04-02T10:42:25;18.80;61.00
21540;DHT22;10931;52.164;5.518;2023-04-02T10:48:04;18.80;60.90
21540;DHT22;10931;52.164;5.518;2023-04-02T10:53:59;18.80;60.90
21540;DHT22;10931;52.164;5.518;2023-04-02T10:56:28;18.80;60.80
21540;DHT22;10931;52.164;5.518;2023-04-02T10:58:57;18.90;60.80
21540;DHT22;10931;52.164;5.518;2023-04-02T11:01:26;18.80;60.80
21540;DHT22;10931;52.164;5.518;2023-04-02T11:07:02;18.90;60.80
21540;DHT22;10931;52.164;5.518;2023-04-02T11:09:33;18.90;60.70
21540;DHT22;10931;52.164;5.518;2023-04-02T11:12:01;18.90;60.80
21540;DHT22;10931;52.164;5.518;2023-04-02T11:14:39;18.90;60.80
21540;DHT22;10931;52.164;5.518;2023-04-02T11:17:11;18.90;60.70
21540;DHT22;10931;52.164;5.518;2023-04-02T11:19:40;18.90;60.70
21540;DHT22;10931;52.164;5.518;2023-04-02T11:22:14;19.00;60.70
21540;DHT22;10931;52.164;5.518;2023-04-02T11:24:49;19.00;60.70
21540;DHT22;10931;52.164;5.518;2023-04-02T11:27:31;19.00;60.60
21540;DHT22;10931;52.164;5.518;2023-04-02T11:30:05;19.00;60.60
21540;DHT22;10931;52.164;5.518;2023-04-02T11:32:47;19.00;60.60
21540;DHT22;10931;52.164;5.518;2023-04-02T11:35:35;19.10;60.60
21540;DHT22;10931;52.164;5.518;2023-04-02T11:40:40;19.10;60.50
21540;DHT22;10931;52.164;5.518;2023-04-02T11:52:19;19.20;60.50
21540;DHT22;10931;52.164;5.518;2023-04-02T11:54:54;19.20;60.40
21540;DHT22;10931;52.164;5.518;2023-04-02T11:57:27;19.20;60.40
21540;DHT22;10931;52.164;5.518;2023-04-02T12:03:00;19.30;60.30
21540;DHT22;10931;52.164;5.518;2023-04-02T12:06:04;19.30;60.20
21540;DHT22;10931;52.164;5.518;2023-04-02T12:11:37;19.30;60.30
21540;DHT22;10931;52.164;5.518;2023-04-02T12:17:30;19.40;60.30
21540;DHT22;10931;52.164;5.518;2023-04-02T12:22:53;19.40;60.10
21540;DHT22;10931;52.164;5.518;2023-04-02T12:25:33;19.50;60.20
21540;DHT22;10931;52.164;5.518;2023-04-02T12:28:15;19.50;60.10
21540;DHT22;10931;52.164;5.518;2023-04-02T12:30:49;19.50;60.10
21540;DHT22;10931;52.164;5.518;2023-04-02T12:33:29;19.50;60.10
21540;DHT22;10931;52.164;5.518;2023-04-02T12:35:59;19.50;60.00
21540;DHT22;10931;52.164;5.518;2023-04-02T12:38:47;19.50;60.00
21540;DHT22;10931;52.164;5.518;2023-04-02T12:41:29;19.60;60.00
21540;DHT22;10931;52.164;5.518;2023-04-02T12:44:01;19.60;60.00
21540;DHT22;10931;52.164;5.518;2023-04-02T12:46:31;19.60;60.00
21540;DHT22;10931;52.164;5.518;2023-04-02T12:49:22;19.60;59.90
21540;DHT22;10931;52.164;5.518;2023-04-02T12:51:54;19.70;60.00
21540;DHT22;10931;52.164;5.518;2023-04-02T12:54:27;19.70;59.90
21540;DHT22;10931;52.164;5.518;2023-04-02T12:57:21;19.70;59.90
21540;DHT22;10931;52.164;5.518;2023-04-02T12:59:47;19.80;59.90
21540;DHT22;10931;52.164;5.518;2023-04-02T13:05:47;19.80;59.80
21540;DHT22;10931;52.164;5.518;2023-04-02T13:11:03;19.90;59.80
21540;DHT22;10931;52.164;5.518;2023-04-02T13:13:35;19.90;59.70
21540;DHT22;10931;52.164;5.518;2023-04-02T13:19:30;20.00;59.70
21540;DHT22;10931;52.164;5.518;2023-04-02T13:22:28;20.00;59.60
21540;DHT22;10931;52.164;5.518;2023-04-02T13:25:02;20.10;59.60
21540;DHT22;10931;52.164;5.518;2023-04-02T13:27:48;20.10;59.60
21540;DHT22;10931;52.164;5.518;2023-04-02T13:30:22;20.10;59.60
21540;DHT22;10931;52.164;5.518;2023-04-02T13:32:50;20.10;59.50
21540;DHT22;10931;52.164;5.518;2023-04-02T13:35:24;20.10;59.50
21540;DHT22;10931;52.164;5.518;2023-04-02T13:37:55;20.20;59.50
21540;DHT22;10931;52.164;5.518;2023-04-02T13:40:30;20.20;59.50
21540;DHT22;10931;52.164;5.518;2023-04-02T13:43:02;20.20;59.40
21540;DHT22;10931;52.164;5.518;2023-04-02T13:45:51;20.30;59.40
21540;DHT22;10931;52.164;5.518;2023-04-02T13:48:23;20.30;59.40
21540;DHT22;10931;52.164;5.518;2023-04-02T13:50:53;20.40;59.40
21540;DHT22;10931;52.164;5.518;2023-04-02T13:53:31;20.30;59.30
21540;DHT22;10931;52.164;5.518;2023-04-02T13:56:08;20.30;59.20
21540;DHT22;10931;52.164;5.518;2023-04-02T13:58:33;20.40;59.30
21540;DHT22;10931;52.164;5.518;2023-04-02T14:01:00;20.40;59.20
21540;DHT22;10931;52.164;5.518;2023-04-02T14:03:28;20.40;59.20
21540;DHT22;10931;52.164;5.518;2023-04-02T14:12:22;20.40;59.10
21540;DHT22;10931;52.164;5.518;2023-04-02T14:18:43;20.40;59.10
21540;DHT22;10931;52.164;5.518;2023-04-02T14:26:38;20.40;59.00
21540;DHT22;10931;52.164;5.518;2023-04-02T14:29:36;20.40;59.00
21540;DHT22;10931;52.164;5.518;2023-04-02T14:32:23;20.40;58.90
21540;DHT22;10931;52.164;5.518;2023-04-02T14:38:28;20.40;58.90
21540;DHT22;10931;52.164;5.518;2023-04-02T14:40:58;20.40;59.50
21540;DHT22;10931;52.164;5.518;2023-04-02T14:43:44;20.40;58.90
21540;DHT22;10931;52.164;5.518;2023-04-02T14:46:29;20.50;58.90
21540;DHT22;10931;52.164;5.518;2023-04-02T14:52:12;20.50;58.90
21540;DHT22;10931;52.164;5.518;2023-04-02T14:54:57;20.40;58.90
21540;DHT22;10931;52.164;5.518;2023-04-02T14:57:44;20.40;58.90
21540;DHT22;10931;52.164;5.518;2023-04-02T15:00:34;20.50;58.90
21540;DHT22;10931;52.164;5.518;2023-04-02T15:03:08;20.50;58.90
21540;DHT22;10931;52.164;5.518;2023-04-02T15:06:02;20.50;58.90
21540;DHT22;10931;52.164;5.518;2023-04-02T15:08:38;20.50;58.90
21540;DHT22;10931;52.164;5.518;2023-04-02T15:11:14;20.50;58.90
21540;DHT22;10931;52.164;5.518;2023-04-02T15:13:50;20.50;58.90
21540;DHT22;10931;52.164;5.518;2023-04-02T15:16:25;20.50;58.80
21540;DHT22;10931;52.164;5.518;2023-04-02T15:19:07;20.50;58.80
21540;DHT22;10931;52.164;5.518;2023-04-02T15:30:40;20.50;58.80
21540;DHT22;10931;52.164;5.518;2023-04-02T15:33:41;20.50;58.70
21540;DHT22;10931;52.164;5.518;2023-04-02T15:42:14;20.50;58.70
21540;DHT22;10931;52.164;5.518;2023-04-02T15:50:50;20.50;58.60
21540;DHT22;10931;52.164;5.518;2023-04-02T16:11:10;20.50;58.60
21540;DHT22;10931;52.164;5.518;2023-04-02T16:13:44;20.50;58.60
21540;DHT22;10931;52.164;5.518;2023-04-02T16:16:33;20.40;58.50
21540;DHT22;10931;52.164;5.518;2023-04-02T16:25:18;20.50;58.60
21540;DHT22;10931;52.164;5.518;2023-04-02T16:28:22;20.50;58.50
21540;DHT22;10931;52.164;5.518;2023-04-02T16:31:13;20.40;58.50
21540;DHT22;10931;52.164;5.518;2023-04-02T16:34:06;20.40;58.50
21540;DHT22;10931;52.164;5.518;2023-04-02T16:46:53;20.50;58.60
21540;DHT22;10931;52.164;5.518;2023-04-02T16:49:50;20.50;58.60
21540;DHT22;10931;52.164;5.518;2023-04-02T16:52:47;20.40;58.50
21540;DHT22;10931;52.164;5.518;2023-04-02T16:55:33;20.40;58.50
21540;DHT22;10931;52.164;5.518;2023-04-02T17:04:47;20.40;58.50
21540;DHT22;10931;52.164;5.518;2023-04-02T17:07:53;20.40;58.60
21540;DHT22;10931;52.164;5.518;2023-04-02T17:10:44;20.40;58.50
21540;DHT22;10931;52.164;5.518;2023-04-02T17:13:26;20.40;58.60
21540;DHT22;10931;52.164;5.518;2023-04-02T17:16:16;20.40;58.60
21540;DHT22;10931;52.164;5.518;2023-04-02T17:18:52;20.40;58.60
21540;DHT22;10931;52.164;5.518;2023-04-02T17:21:27;20.40;58.60
21540;DHT22;10931;52.164;5.518;2023-04-02T17:24:14;20.40;58.50
21540;DHT22;10931;52.164;5.518;2023-04-02T17:26:49;20.40;58.60
21540;DHT22;10931;52.164;5.518;2023-04-02T17:29:24;20.40;58.50
21540;DHT22;10931;52.164;5.518;2023-04-02T17:31:55;20.40;58.50
21540;DHT22;10931;52.164;5.518;2023-04-02T17:34:28;20.40;58.50
21540;DHT22;10931;52.164;5.518;2023-04-02T17:37:22;20.30;58.50
21540;DHT22;10931;52.164;5.518;2023-04-02T17:40:04;20.30;58.50
21540;DHT22;10931;52.164;5.518;2023-04-02T17:42:58;20.30;58.50
21540;DHT22;10931;52.164;5.518;2023-04-02T17:51:23;20.30;58.50
21540;DHT22;10931;52.164;5.518;2023-04-02T17:54:18;20.30;58.50
21540;DHT22;10931;52.164;5.518;2023-04-02T17:57:47;20.30;58.50
21540;DHT22;10931;52.164;5.518;2023-04-02T18:00:30;20.30;58.60
21540;DHT22;10931;52.164;5.518;2023-04-02T18:05:54;20.20;58.50
21540;DHT22;10931;52.164;5.518;2023-04-02T18:09:01;20.20;58.60
21540;DHT22;10931;52.164;5.518;2023-04-02T18:17:52;20.20;58.70
21540;DHT22;10931;52.164;5.518;2023-04-02T18:32:42;20.10;58.70
21540;DHT22;10931;52.164;5.518;2023-04-02T18:35:32;20.10;58.80
21540;DHT22;10931;52.164;5.518;2023-04-02T18:44:24;20.10;58.90
21540;DHT22;10931;52.164;5.518;2023-04-02T18:53:46;20.10;59.10
21540;DHT22;10931;52.164;5.518;2023-04-02T18:56:23;20.10;59.20
21540;DHT22;10931;52.164;5.518;2023-04-02T19:09:04;20.10;59.30
21540;DHT22;10931;52.164;5.518;2023-04-02T19:11:37;20.10;59.40
21540;DHT22;10931;52.164;5.518;2023-04-02T19:33:26;20.00;59.50
21540;DHT22;10931;52.164;5.518;2023-04-02T22:58:38;19.30;59.50
21540;DHT22;10931;52.164;5.518;2023-04-02T23:01:09;19.30;59.50
21540;DHT22;10931;52.164;5.518;2023-04-02T23:03:36;19.30;59.50
21540;DHT22;10931;52.164;5.518;2023-04-02T23:06:05;19.30;59.50
21540;DHT22;10931;52.164;5.518;2023-04-02T23:08:32;19.30;59.50
21540;DHT22;10931;52.164;5.518;2023-04-02T23:11:05;19.30;59.50
21540;DHT22;10931;52.164;5.518;2023-04-02T23:13:31;19.30;59.50
21540;DHT22;10931;52.164;5.518;2023-04-02T23:15:59;19.30;59.50
21540;DHT22;10931;52.164;5.518;2023-04-02T23:18:25;19.30;59.50
21540;DHT22;10931;52.164;5.518;2023-04-02T23:20:54;19.30;59.50
21540;DHT22;10931;52.164;5.518;2023-04-02T23:23:22;19.30;59.50
21540;DHT22;10931;52.164;5.518;2023-04-02T23:25:48;19.30;59.50
21540;DHT22;10931;52.164;5.518;2023-04-02T23:28:19;19.30;59.50
21540;DHT22;10931;52.164;5.518;2023-04-02T23:30:47;19.20;59.50
21540;DHT22;10931;52.164;5.518;2023-04-02T23:33:13;19.20;59.50
21540;DHT22;10931;52.164;5.518;2023-04-02T23:35:42;19.20;59.50
21540;DHT22;10931;52.164;5.518;2023-04-02T23:38:07;19.20;59.50
21540;DHT22;10931;52.164;5.518;2023-04-02T23:40:42;19.20;59.50
21540;DHT22;10931;52.164;5.518;2023-04-02T23:43:08;19.20;59.50
21540;DHT22;10931;52.164;5.518;2023-04-02T23:45:34;19.20;59.50
21540;DHT22;10931;52.164;5.518;2023-04-02T23:47:59;19.20;59.50
21540;DHT22;10931;52.164;5.518;2023-04-02T23:50:25;19.20;59.60
21540;DHT22;10931;52.164;5.518;2023-04-02T23:52:51;19.20;59.50
21540;DHT22;10931;52.164;5.518;2023-04-02T23:55:16;19.20;59.50
21540;DHT22;10931;52.164;5.518;2023-04-02T23:57:42;19.20;59.50
